sensor_id;sensor_type;location;lat;lon;timestamp;temperature;humidity
3550;DHT22;45572;48.804;8.330;2023-12-20T00:01:26;8.00;95.40
3550;DHT22;45572;48.804;8.330;2023-12-20T00:03:54;8.00;95.60
3550;DHT22;45572;48.804;8.330;2023-12-20T00:06:22;7.80;95.60
3550;DHT22;45572;48.804;8.330;2023-12-20T00:08:51;7.80;96.00
3550;DHT22;45572;48.804;8.330;2023-12-20T00:11:19;7.80;95.90
3550;DHT22;45572;48.804;8.330;2023-12-20T00:13:47;7.70;96.00
3550;DHT22;45572;48.804;8.330;2023-12-20T00:16:18;7.70;96.30
3550;DHT22;45572;48.804;8.330;2023-12-20T00:18:47;7.70;96.30
3550;DHT22;45572;48.804;8.330;2023-12-20T00:21:15;7.60;96.40
3550;DHT22;45572;48.804;8.330;2023-12-20T00:23:43;7.50;96.60
3550;DHT22;45572;48.804;8.330;2023-12-20T00:26:11;7.50;96.70
3550;DHT22;45572;48.804;8.330;2023-12-20T00:28:39;7.40;96.80
3550;DHT22;45572;48.804;8.330;2023-12-20T00:31:07;7.40;96.80
3550;DHT22;45572;48.804;8.330;2023-12-20T00:33:35;7.40;96.80
3550;DHT22;45572;48.804;8.330;2023-12-20T00:36:05;7.40;96.80
3550;DHT22;45572;48.804;8.330;2023-12-20T00:38:33;7.30;96.80
3550;DHT22;45572;48.804;8.330;2023-12-20T00:41:01;7.30;96.80
3550;DHT22;45572;48.804;8.330;2023-12-20T00:43:32;7.30;96.80
3550;DHT22;45572;48.804;8.330;2023-12-20T00:46:00;7.30;96.80
3550;DHT22;45572;48.804;8.330;2023-12-20T00:48:28;7.20;96.80
3550;DHT22;45572;48.804;8.330;2023-12-20T00:50:57;7.20;96.80
3550;DHT22;45572;48.804;8.330;2023-12-20T00:53:26;7.20;96.80
3550;DHT22;45572;48.804;8.330;2023-12-20T00:55:54;7.10;96.80
3550;DHT22;45572;48.804;8.330;2023-12-20T00:58:22;7.10;96.80
3550;DHT22;45572;48.804;8.330;2023-12-20T01:00:50;7.20;96.80
3550;DHT22;45572;48.804;8.330;2023-12-20T01:03:19;7.20;96.80
3550;DHT22;45572;48.804;8.330;2023-12-20T01:05:47;7.20;96.80
3550;DHT22;45572;48.804;8.330;2023-12-20T01:08:15;7.30;96.80
3550;DHT22;45572;48.804;8.330;2023-12-20T01:10:45;7.30;96.80
3550;DHT22;45572;48.804;8.330;2023-12-20T01:13:13;7.30;96.80
3550;DHT22;45572;48.804;8.330;2023-12-20T01:15:42;7.30;96.80
3550;DHT22;45572;48.804;8.330;2023-12-20T01:18:10;7.30;96.80
3550;DHT22;45572;48.804;8.330;2023-12-20T01:20:38;7.30;96.80
3550;DHT22;45572;48.804;8.330;2023-12-20T01:23:06;7.30;96.80
3550;DHT22;45572;48.804;8.330;2023-12-20T01:25:34;7.30;96.80
3550;DHT22;45572;48.804;8.330;2023-12-20T01:28:03;7.30;96.80
3550;DHT22;45572;48.804;8.330;2023-12-20T01:30:31;7.30;96.80
3550;DHT22;45572;48.804;8.330;2023-12-20T01:33:00;7.20;96.80
3550;DHT22;45572;48.804;8.330;2023-12-20T01:35:28;7.20;96.80
3550;DHT22;45572;48.804;8.330;2023-12-20T01:37:56;7.20;96.80
3550;DHT22;45572;48.804;8.330;2023-12-20T01:40:24;7.20;96.80
3550;DHT22;45572;48.804;8.330;2023-12-20T01:43:06;7.20;96.80
3550;DHT22;45572;48.804;8.330;2023-12-20T01:45:35;7.20;96.80
3550;DHT22;45572;48.804;8.330;2023-12-20T01:48:05;7.30;96.80
3550;DHT22;45572;48.804;8.330;2023-12-20T01:50:34;7.30;96.80
3550;DHT22;45572;48.804;8.330;2023-12-20T01:53:05;7.30;96.80
3550;DHT22;45572;48.804;8.330;2023-12-20T01:55:35;7.30;96.80
3550;DHT22;45572;48.804;8.330;2023-12-20T01:58:06;7.30;96.80
3550;DHT22;45572;48.804;8.330;2023-12-20T02:00:35;7.30;96.80
3550;DHT22;45572;48.804;8.330;2023-12-20T02:03:04;7.30;96.80
3550;DHT22;45572;48.804;8.330;2023-12-20T02:05:34;7.40;96.80
3550;DHT22;45572;48.804;8.330;2023-12-20T02:08:12;7.50;96.80
3550;DHT22;45572;48.804;8.330;2023-12-20T02:10:40;7.50;96.80
3550;DHT22;45572;48.804;8.330;2023-12-20T02:13:10;7.40;96.80
3550;DHT22;45572;48.804;8.330;2023-12-20T02:15:41;7.40;96.80
3550;DHT22;45572;48.804;8.330;2023-12-20T02:18:10;7.30;96.80
3550;DHT22;45572;48.804;8.330;2023-12-20T02:20:42;7.30;96.80
3550;DHT22;45572;48.804;8.330;2023-12-20T02:23:11;7.30;96.80
3550;DHT22;45572;48.804;8.330;2023-12-20T02:25:39;7.20;96.80
3550;DHT22;45572;48.804;8.330;2023-12-20T02:28:07;7.20;96.80
3550;DHT22;45572;48.804;8.330;2023-12-20T02:30:36;7.10;96.80
3550;DHT22;45572;48.804;8.330;2023-12-20T02:33:07;7.10;96.80
3550;DHT22;45572;48.804;8.330;2023-12-20T02:35:36;7.10;96.80
3550;DHT22;45572;48.804;8.330;2023-12-20T02:38:04;7.20;96.80
3550;DHT22;45572;48.804;8.330;2023-12-20T02:40:33;7.20;96.80
3550;DHT22;45572;48.804;8.330;2023-12-20T02:43:02;7.20;96.80
3550;DHT22;45572;48.804;8.330;2023-12-20T02:45:30;7.20;96.80
3550;DHT22;45572;48.804;8.330;2023-12-20T02:47:58;7.20;96.80
3550;DHT22;45572;48.804;8.330;2023-12-20T02:50:26;7.20;96.80
3550;DHT22;45572;48.804;8.330;2023-12-20T02:52:54;7.20;96.80
3550;DHT22;45572;48.804;8.330;2023-12-20T02:55:22;7.20;96.80
3550;DHT22;45572;48.804;8.330;2023-12-20T02:57:52;7.20;96.80
3550;DHT22;45572;48.804;8.330;2023-12-20T03:00:21;7.20;96.80
3550;DHT22;45572;48.804;8.330;2023-12-20T03:02:49;7.20;96.80
3550;DHT22;45572;48.804;8.330;2023-12-20T03:05:17;7.20;96.80
3550;DHT22;45572;48.804;8.330;2023-12-20T03:07:46;7.20;96.80
3550;DHT22;45572;48.804;8.330;2023-12-20T03:10:14;7.20;96.80
3550;DHT22;45572;48.804;8.330;2023-12-20T03:12:54;7.20;96.80
3550;DHT22;45572;48.804;8.330;2023-12-20T03:15:22;7.20;96.80
3550;DHT22;45572;48.804;8.330;2023-12-20T03:17:50;7.20;96.80
3550;DHT22;45572;48.804;8.330;2023-12-20T03:20:18;7.30;96.80
3550;DHT22;45572;48.804;8.330;2023-12-20T03:22:46;7.20;96.80
3550;DHT22;45572;48.804;8.330;2023-12-20T03:25:15;7.20;96.80
3550;DHT22;45572;48.804;8.330;2023-12-20T03:27:43;7.30;96.80
3550;DHT22;45572;48.804;8.330;2023-12-20T03:30:12;7.30;96.80
3550;DHT22;45572;48.804;8.330;2023-12-20T03:32:41;7.20;96.80
3550;DHT22;45572;48.804;8.330;2023-12-20T03:35:09;7.20;96.80
3550;DHT22;45572;48.804;8.330;2023-12-20T03:37:38;7.20;96.80
3550;DHT22;45572;48.804;8.330;2023-12-20T03:40:06;7.20;96.80
3550;DHT22;45572;48.804;8.330;2023-12-20T03:42:35;7.20;96.80
3550;DHT22;45572;48.804;8.330;2023-12-20T03:45:03;7.10;96.80
3550;DHT22;45572;48.804;8.330;2023-12-20T03:47:32;7.10;96.80
3550;DHT22;45572;48.804;8.330;2023-12-20T03:50:01;7.10;96.80
3550;DHT22;45572;48.804;8.330;2023-12-20T03:52:29;7.10;96.80
3550;DHT22;45572;48.804;8.330;2023-12-20T03:54:57;7.10;96.80
3550;DHT22;45572;48.804;8.330;2023-12-20T03:57:25;7.20;96.80
3550;DHT22;45572;48.804;8.330;2023-12-20T03:59:53;7.20;96.80
3550;DHT22;45572;48.804;8.330;2023-12-20T04:02:21;7.20;96.80
3550;DHT22;45572;48.804;8.330;2023-12-20T04:04:50;7.20;96.80
3550;DHT22;45572;48.804;8.330;2023-12-20T04:07:19;7.20;96.80
3550;DHT22;45572;48.804;8.330;2023-12-20T04:09:48;7.20;96.80
3550;DHT22;45572;48.804;8.330;2023-12-20T04:12:16;7.20;96.80
3550;DHT22;45572;48.804;8.330;2023-12-20T04:14:44;7.20;96.80
3550;DHT22;45572;48.804;8.330;2023-12-20T04:17:12;7.20;96.80
3550;DHT22;45572;48.804;8.330;2023-12-20T04:19:42;7.20;96.80
3550;DHT22;45572;48.804;8.330;2023-12-20T04:22:12;7.20;96.80
3550;DHT22;45572;48.804;8.330;2023-12-20T04:24:40;7.20;96.80
3550;DHT22;45572;48.804;8.330;2023-12-20T04:27:09;7.20;96.80
3550;DHT22;45572;48.804;8.330;2023-12-20T04:29:37;7.10;96.80
3550;DHT22;45572;48.804;8.330;2023-12-20T04:32:05;7.10;96.80
3550;DHT22;45572;48.804;8.330;2023-12-20T04:34:33;7.10;96.80
3550;DHT22;45572;48.804;8.330;2023-12-20T04:37:02;7.10;96.80
3550;DHT22;45572;48.804;8.330;2023-12-20T04:39:31;7.00;96.80
3550;DHT22;45572;48.804;8.330;2023-12-20T04:41:59;7.10;96.80
3550;DHT22;45572;48.804;8.330;2023-12-20T04:44:28;7.10;96.80
3550;DHT22;45572;48.804;8.330;2023-12-20T04:46:55;7.20;96.80
3550;DHT22;45572;48.804;8.330;2023-12-20T04:49:24;7.20;96.80
3550;DHT22;45572;48.804;8.330;2023-12-20T04:51:52;7.30;96.80
3550;DHT22;45572;48.804;8.330;2023-12-20T04:54:20;7.30;96.80
3550;DHT22;45572;48.804;8.330;2023-12-20T04:56:50;7.30;96.80
3550;DHT22;45572;48.804;8.330;2023-12-20T04:59:18;7.30;96.80
3550;DHT22;45572;48.804;8.330;2023-12-20T05:01:46;7.20;96.80
3550;DHT22;45572;48.804;8.330;2023-12-20T05:04:14;7.20;96.80
3550;DHT22;45572;48.804;8.330;2023-12-20T05:06:42;7.20;96.80
3550;DHT22;45572;48.804;8.330;2023-12-20T05:09:10;7.20;96.80
3550;DHT22;45572;48.804;8.330;2023-12-20T05:11:38;7.10;96.80
3550;DHT22;45572;48.804;8.330;2023-12-20T05:14:07;7.10;96.80
3550;DHT22;45572;48.804;8.330;2023-12-20T05:16:35;7.00;96.80
3550;DHT22;45572;48.804;8.330;2023-12-20T05:19:03;7.00;96.80
3550;DHT22;45572;48.804;8.330;2023-12-20T05:21:33;7.00;96.80
3550;DHT22;45572;48.804;8.330;2023-12-20T05:24:02;7.00;96.80
3550;DHT22;45572;48.804;8.330;2023-12-20T05:26:30;7.00;96.80
3550;DHT22;45572;48.804;8.330;2023-12-20T05:28:58;7.10;96.80
3550;DHT22;45572;48.804;8.330;2023-12-20T05:31:28;7.10;96.80
3550;DHT22;45572;48.804;8.330;2023-12-20T05:33:56;7.00;96.80
3550;DHT22;45572;48.804;8.330;2023-12-20T05:36:24;7.00;96.80
3550;DHT22;45572;48.804;8.330;2023-12-20T05:38:52;7.10;96.80
3550;DHT22;45572;48.804;8.330;2023-12-20T05:41:20;7.00;96.80
3550;DHT22;45572;48.804;8.330;2023-12-20T05:43:48;7.10;96.80
3550;DHT22;45572;48.804;8.330;2023-12-20T05:46:16;7.10;96.80
3550;DHT22;45572;48.804;8.330;2023-12-20T05:48:46;7.10;96.80
3550;DHT22;45572;48.804;8.330;2023-12-20T05:51:14;7.10;96.80
3550;DHT22;45572;48.804;8.330;2023-12-20T05:53:42;7.10;96.80
3550;DHT22;45572;48.804;8.330;2023-12-20T05:56:11;7.10;96.80
3550;DHT22;45572;48.804;8.330;2023-12-20T05:58:39;7.20;96.80
3550;DHT22;45572;48.804;8.330;2023-12-20T06:01:07;7.10;96.80
3550;DHT22;45572;48.804;8.330;2023-12-20T06:03:35;7.20;96.80
3550;DHT22;45572;48.804;8.330;2023-12-20T06:06:07;7.20;96.80
3550;DHT22;45572;48.804;8.330;2023-12-20T06:08:43;7.20;96.80
3550;DHT22;45572;48.804;8.330;2023-12-20T06:11:11;7.10;96.80
3550;DHT22;45572;48.804;8.330;2023-12-20T06:13:40;7.10;96.80
3550;DHT22;45572;48.804;8.330;2023-12-20T06:16:08;7.10;96.80
3550;DHT22;45572;48.804;8.330;2023-12-20T06:18:36;7.10;96.80
3550;DHT22;45572;48.804;8.330;2023-12-20T06:21:04;7.10;96.80
3550;DHT22;45572;48.804;8.330;2023-12-20T06:23:35;7.10;96.80
3550;DHT22;45572;48.804;8.330;2023-12-20T06:26:03;7.10;96.80
3550;DHT22;45572;48.804;8.330;2023-12-20T06:28:34;7.20;96.80
3550;DHT22;45572;48.804;8.330;2023-12-20T06:31:06;7.20;96.80
3550;DHT22;45572;48.804;8.330;2023-12-20T06:33:34;7.20;96.80
3550;DHT22;45572;48.804;8.330;2023-12-20T06:36:03;7.30;96.80
3550;DHT22;45572;48.804;8.330;2023-12-20T06:38:31;7.20;96.80
3550;DHT22;45572;48.804;8.330;2023-12-20T06:41:00;7.30;96.80
3550;DHT22;45572;48.804;8.330;2023-12-20T06:43:28;7.30;96.80
3550;DHT22;45572;48.804;8.330;2023-12-20T06:46:14;7.30;96.80
3550;DHT22;45572;48.804;8.330;2023-12-20T06:48:44;7.30;96.80
3550;DHT22;45572;48.804;8.330;2023-12-20T06:51:13;7.30;96.80
3550;DHT22;45572;48.804;8.330;2023-12-20T06:53:42;7.30;96.80
3550;DHT22;45572;48.804;8.330;2023-12-20T06:56:12;7.30;96.80
3550;DHT22;45572;48.804;8.330;2023-12-20T06:58:44;7.20;96.80
3550;DHT22;45572;48.804;8.330;2023-12-20T07:01:12;7.20;96.80
3550;DHT22;45572;48.804;8.330;2023-12-20T07:03:41;7.10;96.80
3550;DHT22;45572;48.804;8.330;2023-12-20T07:06:09;7.10;96.80
3550;DHT22;45572;48.804;8.330;2023-12-20T07:08:40;7.10;96.80
3550;DHT22;45572;48.804;8.330;2023-12-20T07:11:08;7.10;96.80
3550;DHT22;45572;48.804;8.330;2023-12-20T07:13:38;7.10;96.80
3550;DHT22;45572;48.804;8.330;2023-12-20T07:16:06;7.10;96.80
3550;DHT22;45572;48.804;8.330;2023-12-20T07:18:34;7.10;96.80
3550;DHT22;45572;48.804;8.330;2023-12-20T07:21:03;7.10;96.80
3550;DHT22;45572;48.804;8.330;2023-12-20T07:23:30;7.10;96.80
3550;DHT22;45572;48.804;8.330;2023-12-20T07:25:58;7.00;96.80
3550;DHT22;45572;48.804;8.330;2023-12-20T07:28:26;7.00;96.80
3550;DHT22;45572;48.804;8.330;2023-12-20T07:30:55;7.00;96.80
3550;DHT22;45572;48.804;8.330;2023-12-20T07:33:23;7.00;96.80
3550;DHT22;45572;48.804;8.330;2023-12-20T07:35:52;7.00;96.80
3550;DHT22;45572;48.804;8.330;2023-12-20T07:38:20;6.90;96.80
3550;DHT22;45572;48.804;8.330;2023-12-20T07:40:48;6.90;96.80
3550;DHT22;45572;48.804;8.330;2023-12-20T07:43:16;6.80;96.80
3550;DHT22;45572;48.804;8.330;2023-12-20T07:45:44;6.80;96.80
3550;DHT22;45572;48.804;8.330;2023-12-20T07:48:14;6.70;96.80
3550;DHT22;45572;48.804;8.330;2023-12-20T07:50:42;6.70;96.80
3550;DHT22;45572;48.804;8.330;2023-12-20T07:53:10;6.70;96.80
3550;DHT22;45572;48.804;8.330;2023-12-20T07:55:39;6.70;96.80
3550;DHT22;45572;48.804;8.330;2023-12-20T07:58:07;6.60;96.80
3550;DHT22;45572;48.804;8.330;2023-12-20T08:00:35;6.60;96.80
3550;DHT22;45572;48.804;8.330;2023-12-20T08:03:03;6.50;96.80
3550;DHT22;45572;48.804;8.330;2023-12-20T08:05:32;6.50;96.80
3550;DHT22;45572;48.804;8.330;2023-12-20T08:08:00;6.50;96.80
3550;DHT22;45572;48.804;8.330;2023-12-20T08:10:28;6.40;96.80
3550;DHT22;45572;48.804;8.330;2023-12-20T08:12:57;6.40;96.80
3550;DHT22;45572;48.804;8.330;2023-12-20T08:15:25;6.30;96.80
3550;DHT22;45572;48.804;8.330;2023-12-20T08:17:53;6.30;96.80
3550;DHT22;45572;48.804;8.330;2023-12-20T08:20:21;6.20;96.80
3550;DHT22;45572;48.804;8.330;2023-12-20T08:23:04;6.20;96.80
3550;DHT22;45572;48.804;8.330;2023-12-20T08:25:34;6.10;96.80
3550;DHT22;45572;48.804;8.330;2023-12-20T08:28:03;6.10;96.80
3550;DHT22;45572;48.804;8.330;2023-12-20T08:30:31;6.10;96.80
3550;DHT22;45572;48.804;8.330;2023-12-20T08:33:00;6.10;96.80
3550;DHT22;45572;48.804;8.330;2023-12-20T08:35:28;6.10;96.80
3550;DHT22;45572;48.804;8.330;2023-12-20T08:37:56;6.20;96.80
3550;DHT22;45572;48.804;8.330;2023-12-20T08:40:26;6.40;96.80
3550;DHT22;45572;48.804;8.330;2023-12-20T08:42:54;6.40;96.80
3550;DHT22;45572;48.804;8.330;2023-12-20T08:45:22;6.60;96.80
3550;DHT22;45572;48.804;8.330;2023-12-20T08:47:51;6.70;96.80
3550;DHT22;45572;48.804;8.330;2023-12-20T08:50:19;6.70;96.70
3550;DHT22;45572;48.804;8.330;2023-12-20T08:52:47;6.70;96.30
3550;DHT22;45572;48.804;8.330;2023-12-20T08:55:16;6.90;96.10
3550;DHT22;45572;48.804;8.330;2023-12-20T08:57:46;6.90;95.70
3550;DHT22;45572;48.804;8.330;2023-12-20T09:00:15;7.00;95.30
3550;DHT22;45572;48.804;8.330;2023-12-20T09:02:43;7.00;95.20
3550;DHT22;45572;48.804;8.330;2023-12-20T09:05:11;7.00;94.60
3550;DHT22;45572;48.804;8.330;2023-12-20T09:07:39;7.10;94.80
3550;DHT22;45572;48.804;8.330;2023-12-20T09:10:08;7.20;94.70
3550;DHT22;45572;48.804;8.330;2023-12-20T09:12:36;7.20;94.40
3550;DHT22;45572;48.804;8.330;2023-12-20T09:15:08;7.20;93.90
3550;DHT22;45572;48.804;8.330;2023-12-20T09:17:36;7.20;94.00
3550;DHT22;45572;48.804;8.330;2023-12-20T09:20:05;7.20;93.80
3550;DHT22;45572;48.804;8.330;2023-12-20T09:22:35;7.20;93.50
3550;DHT22;45572;48.804;8.330;2023-12-20T09:25:05;7.30;93.70
3550;DHT22;45572;48.804;8.330;2023-12-20T09:27:33;7.30;94.00
3550;DHT22;45572;48.804;8.330;2023-12-20T09:30:02;7.30;94.40
3550;DHT22;45572;48.804;8.330;2023-12-20T09:32:33;7.30;93.70
3550;DHT22;45572;48.804;8.330;2023-12-20T09:35:01;7.20;93.40
3550;DHT22;45572;48.804;8.330;2023-12-20T09:37:32;7.20;93.60
3550;DHT22;45572;48.804;8.330;2023-12-20T09:40:00;7.20;93.80
3550;DHT22;45572;48.804;8.330;2023-12-20T09:42:34;7.20;93.90
3550;DHT22;45572;48.804;8.330;2023-12-20T09:45:08;7.20;93.60
3550;DHT22;45572;48.804;8.330;2023-12-20T09:47:38;7.10;93.70
3550;DHT22;45572;48.804;8.330;2023-12-20T09:50:07;7.10;93.70
3550;DHT22;45572;48.804;8.330;2023-12-20T09:52:36;7.10;93.70
3550;DHT22;45572;48.804;8.330;2023-12-20T09:55:05;7.10;93.70
3550;DHT22;45572;48.804;8.330;2023-12-20T09:57:34;7.10;93.60
3550;DHT22;45572;48.804;8.330;2023-12-20T10:00:03;7.00;93.30
3550;DHT22;45572;48.804;8.330;2023-12-20T11:38:56;8.40;85.20
3550;DHT22;45572;48.804;8.330;2023-12-20T11:41:25;8.30;85.20
3550;DHT22;45572;48.804;8.330;2023-12-20T11:43:53;8.30;84.50
3550;DHT22;45572;48.804;8.330;2023-12-20T11:46:22;8.30;84.90
3550;DHT22;45572;48.804;8.330;2023-12-20T11:48:50;8.20;84.70
3550;DHT22;45572;48.804;8.330;2023-12-20T11:51:19;8.10;84.50
3550;DHT22;45572;48.804;8.330;2023-12-20T11:53:51;8.10;85.00
3550;DHT22;45572;48.804;8.330;2023-12-20T11:56:20;8.00;84.30
3550;DHT22;45572;48.804;8.330;2023-12-20T11:58:49;7.90;84.90
3550;DHT22;45572;48.804;8.330;2023-12-20T12:01:19;7.90;84.90
3550;DHT22;45572;48.804;8.330;2023-12-20T12:03:48;7.90;85.30
3550;DHT22;45572;48.804;8.330;2023-12-20T12:06:16;7.90;85.70
3550;DHT22;45572;48.804;8.330;2023-12-20T12:08:44;7.90;87.20
3550;DHT22;45572;48.804;8.330;2023-12-20T12:11:12;7.70;87.40
3550;DHT22;45572;48.804;8.330;2023-12-20T12:13:41;7.60;87.70
3550;DHT22;45572;48.804;8.330;2023-12-20T12:16:10;7.50;88.40
3550;DHT22;45572;48.804;8.330;2023-12-20T12:18:38;7.40;86.90
3550;DHT22;45572;48.804;8.330;2023-12-20T12:21:08;7.40;87.80
3550;DHT22;45572;48.804;8.330;2023-12-20T12:23:44;7.30;88.00
3550;DHT22;45572;48.804;8.330;2023-12-20T12:26:12;7.40;88.30
3550;DHT22;45572;48.804;8.330;2023-12-20T12:28:42;7.40;87.80
3550;DHT22;45572;48.804;8.330;2023-12-20T12:31:13;7.50;87.90
3550;DHT22;45572;48.804;8.330;2023-12-20T12:33:43;7.50;86.90
3550;DHT22;45572;48.804;8.330;2023-12-20T12:36:12;7.50;86.80
3550;DHT22;45572;48.804;8.330;2023-12-20T12:38:42;7.50;86.20
3550;DHT22;45572;48.804;8.330;2023-12-20T12:41:12;7.70;86.60
3550;DHT22;45572;48.804;8.330;2023-12-20T12:43:43;7.80;86.70
3550;DHT22;45572;48.804;8.330;2023-12-20T12:46:11;7.70;86.40
3550;DHT22;45572;48.804;8.330;2023-12-20T12:48:39;7.70;86.50
3550;DHT22;45572;48.804;8.330;2023-12-20T12:51:11;7.70;86.70
3550;DHT22;45572;48.804;8.330;2023-12-20T12:53:40;7.70;87.40
3550;DHT22;45572;48.804;8.330;2023-12-20T12:56:08;7.60;86.30
3550;DHT22;45572;48.804;8.330;2023-12-20T12:58:36;7.60;86.30
3550;DHT22;45572;48.804;8.330;2023-12-20T13:01:06;7.60;86.80
3550;DHT22;45572;48.804;8.330;2023-12-20T13:03:35;7.70;87.40
3550;DHT22;45572;48.804;8.330;2023-12-20T13:06:03;7.70;87.10
3550;DHT22;45572;48.804;8.330;2023-12-20T13:08:32;7.60;87.10
3550;DHT22;45572;48.804;8.330;2023-12-20T13:11:00;7.70;87.20
3550;DHT22;45572;48.804;8.330;2023-12-20T13:13:31;7.70;86.40
3550;DHT22;45572;48.804;8.330;2023-12-20T13:15:59;7.60;86.60
3550;DHT22;45572;48.804;8.330;2023-12-20T13:18:29;7.60;86.20
3550;DHT22;45572;48.804;8.330;2023-12-20T13:20:57;7.60;86.50
3550;DHT22;45572;48.804;8.330;2023-12-20T13:23:25;7.50;86.90
3550;DHT22;45572;48.804;8.330;2023-12-20T13:25:53;7.40;86.80
3550;DHT22;45572;48.804;8.330;2023-12-20T13:28:21;7.50;87.40
3550;DHT22;45572;48.804;8.330;2023-12-20T13:30:49;7.40;87.30
3550;DHT22;45572;48.804;8.330;2023-12-20T13:33:17;7.40;87.60
3550;DHT22;45572;48.804;8.330;2023-12-20T13:35:46;7.40;87.60
3550;DHT22;45572;48.804;8.330;2023-12-20T13:38:14;7.30;87.40
3550;DHT22;45572;48.804;8.330;2023-12-20T13:40:43;7.30;87.70
3550;DHT22;45572;48.804;8.330;2023-12-20T13:43:11;7.20;88.00
3550;DHT22;45572;48.804;8.330;2023-12-20T13:45:39;7.20;88.60
3550;DHT22;45572;48.804;8.330;2023-12-20T13:48:08;7.20;89.00
3550;DHT22;45572;48.804;8.330;2023-12-20T13:50:36;7.10;88.70
3550;DHT22;45572;48.804;8.330;2023-12-20T13:53:05;7.10;89.10
3550;DHT22;45572;48.804;8.330;2023-12-20T13:55:33;7.10;89.10
3550;DHT22;45572;48.804;8.330;2023-12-20T13:58:01;7.10;89.20
3550;DHT22;45572;48.804;8.330;2023-12-20T14:00:33;7.10;89.30
3550;DHT22;45572;48.804;8.330;2023-12-20T14:03:03;7.10;89.50
3550;DHT22;45572;48.804;8.330;2023-12-20T14:05:31;7.20;89.50
3550;DHT22;45572;48.804;8.330;2023-12-20T14:08:00;7.20;89.40
3550;DHT22;45572;48.804;8.330;2023-12-20T14:10:29;7.20;89.20
3550;DHT22;45572;48.804;8.330;2023-12-20T14:12:58;7.20;89.30
3550;DHT22;45572;48.804;8.330;2023-12-20T14:15:26;7.30;89.20
3550;DHT22;45572;48.804;8.330;2023-12-20T14:17:54;7.20;88.80
3550;DHT22;45572;48.804;8.330;2023-12-20T14:20:22;7.30;89.00
3550;DHT22;45572;48.804;8.330;2023-12-20T14:22:50;7.30;88.80
3550;DHT22;45572;48.804;8.330;2023-12-20T14:25:18;7.30;88.70
3550;DHT22;45572;48.804;8.330;2023-12-20T14:27:50;7.30;89.10
3550;DHT22;45572;48.804;8.330;2023-12-20T14:30:18;7.20;89.20
3550;DHT22;45572;48.804;8.330;2023-12-20T14:32:46;7.20;89.30
3550;DHT22;45572;48.804;8.330;2023-12-20T14:35:14;7.20;89.70
3550;DHT22;45572;48.804;8.330;2023-12-20T14:37:43;7.20;89.70
3550;DHT22;45572;48.804;8.330;2023-12-20T14:40:12;7.20;90.00
3550;DHT22;45572;48.804;8.330;2023-12-20T14:42:43;7.20;89.80
3550;DHT22;45572;48.804;8.330;2023-12-20T14:45:13;7.10;89.70
3550;DHT22;45572;48.804;8.330;2023-12-20T14:47:42;7.20;89.80
3550;DHT22;45572;48.804;8.330;2023-12-20T14:50:12;7.20;90.10
3550;DHT22;45572;48.804;8.330;2023-12-20T14:52:45;7.20;89.70
3550;DHT22;45572;48.804;8.330;2023-12-20T14:55:14;7.10;89.60
3550;DHT22;45572;48.804;8.330;2023-12-20T14:57:42;7.10;90.00
3550;DHT22;45572;48.804;8.330;2023-12-20T15:00:10;7.00;90.50
3550;DHT22;45572;48.804;8.330;2023-12-20T15:02:47;7.00;90.60
3550;DHT22;45572;48.804;8.330;2023-12-20T15:05:15;7.00;91.00
3550;DHT22;45572;48.804;8.330;2023-12-20T15:07:44;7.00;90.90
3550;DHT22;45572;48.804;8.330;2023-12-20T15:10:14;7.00;91.10
3550;DHT22;45572;48.804;8.330;2023-12-20T15:12:43;6.90;91.50
3550;DHT22;45572;48.804;8.330;2023-12-20T15:15:11;6.90;92.10
3550;DHT22;45572;48.804;8.330;2023-12-20T15:17:39;6.90;92.40
3550;DHT22;45572;48.804;8.330;2023-12-20T15:20:09;6.90;92.50
3550;DHT22;45572;48.804;8.330;2023-12-20T15:22:38;6.80;93.50
3550;DHT22;45572;48.804;8.330;2023-12-20T15:25:08;6.70;93.60
3550;DHT22;45572;48.804;8.330;2023-12-20T15:27:36;6.50;93.40
3550;DHT22;45572;48.804;8.330;2023-12-20T15:30:05;6.50;94.30
3550;DHT22;45572;48.804;8.330;2023-12-20T15:32:36;6.50;94.90
3550;DHT22;45572;48.804;8.330;2023-12-20T15:35:05;6.40;95.10
3550;DHT22;45572;48.804;8.330;2023-12-20T15:37:35;6.30;95.30
3550;DHT22;45572;48.804;8.330;2023-12-20T15:40:04;6.30;95.80
3550;DHT22;45572;48.804;8.330;2023-12-20T15:42:33;6.30;96.30
3550;DHT22;45572;48.804;8.330;2023-12-20T15:45:03;6.30;96.30
3550;DHT22;45572;48.804;8.330;2023-12-20T15:47:32;6.30;96.50
3550;DHT22;45572;48.804;8.330;2023-12-20T15:50:00;6.20;96.50
3550;DHT22;45572;48.804;8.330;2023-12-20T15:52:28;6.20;96.80
3550;DHT22;45572;48.804;8.330;2023-12-20T15:54:58;6.10;96.80
3550;DHT22;45572;48.804;8.330;2023-12-20T15:57:26;6.20;96.80
3550;DHT22;45572;48.804;8.330;2023-12-20T16:00:11;6.00;96.80
3550;DHT22;45572;48.804;8.330;2023-12-20T16:02:39;6.00;96.80
3550;DHT22;45572;48.804;8.330;2023-12-20T16:05:07;6.00;96.80
3550;DHT22;45572;48.804;8.330;2023-12-20T16:07:36;6.00;96.80
3550;DHT22;45572;48.804;8.330;2023-12-20T16:10:06;6.00;96.80
3550;DHT22;45572;48.804;8.330;2023-12-20T16:12:34;6.00;96.80
3550;DHT22;45572;48.804;8.330;2023-12-20T16:15:02;6.00;96.80
3550;DHT22;45572;48.804;8.330;2023-12-20T16:17:31;6.00;96.80
3550;DHT22;45572;48.804;8.330;2023-12-20T16:20:00;6.00;96.80
3550;DHT22;45572;48.804;8.330;2023-12-20T16:22:28;6.00;96.70
3550;DHT22;45572;48.804;8.330;2023-12-20T16:24:57;6.00;96.80
3550;DHT22;45572;48.804;8.330;2023-12-20T16:27:26;5.90;96.60
3550;DHT22;45572;48.804;8.330;2023-12-20T16:29:54;6.00;96.80
3550;DHT22;45572;48.804;8.330;2023-12-20T16:32:22;6.00;96.50
3550;DHT22;45572;48.804;8.330;2023-12-20T16:34:50;5.90;96.30
3550;DHT22;45572;48.804;8.330;2023-12-20T16:37:19;5.90;96.60
3550;DHT22;45572;48.804;8.330;2023-12-20T16:39:47;5.90;96.30
3550;DHT22;45572;48.804;8.330;2023-12-20T16:42:15;6.00;95.60
3550;DHT22;45572;48.804;8.330;2023-12-20T16:44:45;6.00;96.40
3550;DHT22;45572;48.804;8.330;2023-12-20T16:47:13;6.10;96.20
3550;DHT22;45572;48.804;8.330;2023-12-20T16:49:41;6.10;96.00
3550;DHT22;45572;48.804;8.330;2023-12-20T16:52:09;6.10;95.80
3550;DHT22;45572;48.804;8.330;2023-12-20T16:54:37;6.20;94.60
3550;DHT22;45572;48.804;8.330;2023-12-20T16:57:05;6.20;94.60
3550;DHT22;45572;48.804;8.330;2023-12-20T16:59:33;6.20;94.70
3550;DHT22;45572;48.804;8.330;2023-12-20T17:02:03;6.20;94.50
3550;DHT22;45572;48.804;8.330;2023-12-20T17:04:32;6.20;94.30
3550;DHT22;45572;48.804;8.330;2023-12-20T17:07:00;6.20;94.60
3550;DHT22;45572;48.804;8.330;2023-12-20T17:09:28;6.30;94.00
3550;DHT22;45572;48.804;8.330;2023-12-20T17:11:58;6.30;94.40
3550;DHT22;45572;48.804;8.330;2023-12-20T17:14:26;6.30;93.90
3550;DHT22;45572;48.804;8.330;2023-12-20T17:16:54;6.30;93.90
3550;DHT22;45572;48.804;8.330;2023-12-20T17:19:23;6.30;93.00
3550;DHT22;45572;48.804;8.330;2023-12-20T17:21:51;6.40;92.70
3550;DHT22;45572;48.804;8.330;2023-12-20T17:24:19;6.40;93.10
3550;DHT22;45572;48.804;8.330;2023-12-20T17:26:47;6.40;93.10
3550;DHT22;45572;48.804;8.330;2023-12-20T17:29:15;6.50;93.20
3550;DHT22;45572;48.804;8.330;2023-12-20T17:31:43;6.50;93.00
3550;DHT22;45572;48.804;8.330;2023-12-20T17:34:11;6.50;92.70
3550;DHT22;45572;48.804;8.330;2023-12-20T17:36:41;6.50;92.10
3550;DHT22;45572;48.804;8.330;2023-12-20T17:39:10;6.50;92.00
3550;DHT22;45572;48.804;8.330;2023-12-20T17:41:38;6.60;91.80
3550;DHT22;45572;48.804;8.330;2023-12-20T17:44:06;6.60;91.90
3550;DHT22;45572;48.804;8.330;2023-12-20T17:46:34;6.60;92.20
3550;DHT22;45572;48.804;8.330;2023-12-20T17:49:02;6.60;91.90